WetterOnline ( http://www.wetteronline.de )

Wetter aktuell Trier

Aktuelles Wetter: Trier/Petrisberg (273m)

6-stündlich | Neueste Meldungen
Ortszeit Temperatur Wetter
Do, 25.05. 14:00 21.0° C leicht bewölkt
Do, 25.05. 8:00 13.9° C wolkig
Do, 25.05. 2:00 13.9° C wolkig
Mi, 24.05. 20:00 20.3° C bewölkt
Ortszeit Temperatur Wetter
Do, 25.05. 14:00 21.0° C leicht bewölkt
Do, 25.05. 13:30 21.5° C leicht bewölkt
Do, 25.05. 13:00 20.4° C leicht bewölkt
Do, 25.05. 12:30 19.9° C leicht bewölkt
Do, 25.05. 12:00 19.0° C leicht bewölkt
Do, 25.05. 11:30 18.5° C wolkig
Ortszeit Relative Feuchte Sichtweite
Do, 25.05. 14:00 45% 5.0 km
Do, 25.05. 8:00 84% 11 km
Do, 25.05. 2:00 87% 17 km
Mi, 24.05. 20:00 59% 15 km
Ortszeit Relative Feuchte Sichtweite
Do, 25.05. 14:00 45% 5.0 km
Do, 25.05. 13:30 43% 4.6 km
Do, 25.05. 13:00 49% 4.4 km
Do, 25.05. 12:30 53% 7 km
Do, 25.05. 12:00 59% 9 km
Do, 25.05. 11:30 60% 5.0 km
Ortszeit Niederschlagsmenge Niederschlagsart
Do, 25.05. 14:00 0,0 l/m2 in 6 Std. -
Do, 25.05. 8:00 0,0 l/m2 in 12 Std. -
Do, 25.05. 2:00 0,0 l/m2 in 6 Std. -
Mi, 24.05. 20:00 0,0 l/m2 in 12 Std. -
Ortszeit Niederschlagsmenge Niederschlagsart
Do, 25.05. 14:00 0,0 l/m2 in 1 Std. -
Do, 25.05. 13:30 keine Meldung -
Do, 25.05. 13:00 0,0 l/m2 in 1 Std. -
Do, 25.05. 12:30 keine Meldung -
Do, 25.05. 12:00 0,0 l/m2 in 1 Std. -
Do, 25.05. 11:30 keine Meldung -
Ortszeit Stärke Spitze Richtung
km/h Bft. km/h Grad Sektor
Do, 25.05. 14:00 14 3 29 60° NO
Do, 25.05. 8:00 7 2 18 30° NO
Do, 25.05. 2:00 6 1 20 10° N
Mi, 24.05. 20:00 11 2 33 330° NW
Ortszeit Stärke Spitze Richtung
km/h Bft. km/h Grad Sektor
Do, 25.05. 14:00 14 3 29 60° NO
Do, 25.05. 13:30 17 3 30 40° NO
Do, 25.05. 13:00 15 3 30 50° NO
Do, 25.05. 12:30 19 3 28 30° NO
Do, 25.05. 12:00 13 3 26 40° NO
Do, 25.05. 11:30 13 3 26 30° NO
Ortszeit Untergrenze Bedeckung Gattung
total tief tief mittel hoch
Do, 25.05. 14:00 10500 m 6/8 0/8 - - -
Do, 25.05. 8:00 9000 m 7/8 0/8 - - -
Do, 25.05. 2:00 10500 m 8/8 0/8 - - -
Mi, 24.05. 20:00 2100 m 8/8 6/8 - - -
Ortszeit Bedeckungsgrad in Achtel und Wolkenuntergrenze
Do, 25.05. 14:00 6(10500m) 6(10500m)
Do, 25.05. 13:30 2(9000m) 5(10500m)
Do, 25.05. 13:00 6(10500m)
Do, 25.05. 12:30 6(9000m) 6(10500m)
Do, 25.05. 12:00 7(9000m) 8(10500m)
Do, 25.05. 11:30 4(9000m) 8(10500m)
Ortszeit Luftdruck NN (hPa) Tendenz (hPa in 3 Std.)
Do, 25.05. 14:00 1023 - 0,9
Do, 25.05. 8:00 1024 + 0,6
Do, 25.05. 2:00 1024 - 0,2
Mi, 24.05. 20:00 1023 - 0,3
Ortszeit Luftdruck NN (hPa) Tendenz (hPa in 3 Std.)
Do, 25.05. 14:00 1023 - 0,9
Do, 25.05. 13:30 1023 - 0,8
Do, 25.05. 13:00 1023 - 0,5
Do, 25.05. 12:30 1024 0,0
Do, 25.05. 12:00 1024 + 0,3
Do, 25.05. 11:30 1024 + 0,3
Ortszeit Schneehöhe (cm)
Do, 25.05. 14:00 -
Do, 25.05. 8:00 -
Do, 25.05. 2:00 -
Mi, 24.05. 20:00 -
Ortszeit Schneehöhe (cm)
Do, 25.05. 14:00 -
Do, 25.05. 13:30 -
Do, 25.05. 13:00 -
Do, 25.05. 12:30 -
Do, 25.05. 12:00 -
Do, 25.05. 11:30 -
Link zu dieser Seite / Seite empfehlen

Das Wetter in ...